createdAt,value
2022-12-08T00:00:20.295Z,9.457216
2022-12-08T00:01:20.266Z,9.457310
2022-12-08T00:02:20.378Z,9.457141
2022-12-08T00:03:20.458Z,9.457061
2022-12-08T00:04:20.263Z,9.457172
2022-12-08T00:05:20.253Z,9.457272
2022-12-08T00:06:20.227Z,9.457336
2022-12-08T00:07:20.219Z,9.457144
2022-12-08T00:08:20.262Z,9.457270
2022-12-08T00:09:20.216Z,9.457087
2022-12-08T00:10:47.903Z,9.456991
2022-12-08T00:11:22.191Z,9.456916
2022-12-08T00:12:46.584Z,9.457180
2022-12-08T00:13:20.163Z,9.457189
2022-12-08T00:14:20.180Z,9.457377
2022-12-08T00:15:20.145Z,9.457248
2022-12-08T00:16:20.224Z,9.457247
2022-12-08T00:17:20.132Z,9.457031
2022-12-08T00:18:20.140Z,9.457209
2022-12-08T00:19:20.130Z,9.457198
2022-12-08T00:20:20.107Z,9.457213
2022-12-08T00:21:20.100Z,9.457040
2022-12-08T00:22:20.086Z,9.457125
2022-12-08T00:23:20.083Z,9.457308
2022-12-08T00:24:20.118Z,9.457467
2022-12-08T00:25:20.058Z,9.457335
2022-12-08T00:26:20.052Z,9.457263
2022-12-08T00:27:20.043Z,9.457231
2022-12-08T00:28:20.026Z,9.457223
2022-12-08T00:29:20.043Z,9.457197
2022-12-08T00:30:20.039Z,9.457210
2022-12-08T00:31:20.052Z,9.457109
2022-12-08T00:32:20.080Z,9.457191
2022-12-08T00:33:19.998Z,9.457340
2022-12-08T00:34:20.006Z,9.457253
2022-12-08T00:35:19.985Z,9.456887
2022-12-08T00:36:19.967Z,9.456816
2022-12-08T00:37:19.961Z,9.456530
2022-12-08T00:38:19.949Z,9.456749
2022-12-08T00:39:19.968Z,9.456654
2022-12-08T00:40:19.938Z,9.456989
2022-12-08T00:41:19.934Z,9.456961
2022-12-08T00:42:19.926Z,9.457030
2022-12-08T00:43:19.912Z,9.457137
2022-12-08T00:44:19.922Z,9.457268
2022-12-08T00:45:19.900Z,9.457260
2022-12-08T00:46:19.922Z,9.457349
2022-12-08T00:47:24.489Z,9.457344
2022-12-08T00:48:20.873Z,9.457265
2022-12-08T00:49:19.883Z,9.456952
2022-12-08T00:50:19.853Z,9.456888
2022-12-08T00:51:20.566Z,9.456994
2022-12-08T00:52:19.833Z,9.457115
2022-12-08T00:53:19.823Z,9.457248
2022-12-08T00:54:19.838Z,9.457294
2022-12-08T00:55:19.808Z,9.457495
2022-12-08T00:56:19.795Z,9.457269
2022-12-08T00:57:19.791Z,9.457115
2022-12-08T00:58:19.798Z,9.457042
2022-12-08T00:59:19.799Z,9.457186
2022-12-08T01:00:19.772Z,9.457108
2022-12-08T01:01:19.950Z,9.457129
2022-12-08T01:02:19.757Z,9.457089
2022-12-08T01:03:19.834Z,9.457165
2022-12-08T01:04:19.760Z,9.457286
2022-12-08T01:05:19.736Z,9.457363
2022-12-08T01:06:19.725Z,9.457234
2022-12-08T01:07:19.709Z,9.457119
2022-12-08T01:08:19.734Z,9.457256
2022-12-08T01:09:19.719Z,9.457305
2022-12-08T01:10:19.684Z,9.457055
2022-12-08T01:11:19.672Z,9.457113
2022-12-08T01:12:19.660Z,9.457123
2022-12-08T01:13:19.660Z,9.457170
2022-12-08T01:14:19.674Z,9.457294
2022-12-08T01:15:19.643Z,9.457233
2022-12-08T01:16:19.679Z,9.457314
2022-12-08T01:17:19.630Z,9.457336
2022-12-08T01:18:19.621Z,9.457227
2022-12-08T01:19:19.631Z,9.457114
2022-12-08T01:20:19.593Z,9.456996
2022-12-08T01:21:19.600Z,9.457066
2022-12-08T01:22:19.585Z,9.457032
2022-12-08T01:23:19.588Z,9.457191
2022-12-08T01:24:19.587Z,9.457427
2022-12-08T01:25:19.570Z,9.457127
2022-12-08T01:26:19.561Z,9.457177
2022-12-08T01:27:19.568Z,9.457233
2022-12-08T01:28:19.525Z,9.457196
2022-12-08T01:29:19.548Z,9.457016
2022-12-08T01:30:19.519Z,9.457032
2022-12-08T01:31:19.589Z,9.457159
2022-12-08T01:32:19.507Z,9.457455
2022-12-08T01:33:19.499Z,9.457131
2022-12-08T01:34:19.509Z,9.457129
2022-12-08T01:35:19.488Z,9.457099
2022-12-08T01:36:19.465Z,9.456999
2022-12-08T01:37:19.470Z,9.457226
2022-12-08T01:38:19.459Z,9.456945
2022-12-08T01:39:19.469Z,9.457116
2022-12-08T01:40:19.442Z,9.457067
2022-12-08T01:41:19.427Z,9.456857
2022-12-08T01:42:19.426Z,9.457131
2022-12-08T01:43:19.417Z,9.457029
2022-12-08T01:44:19.413Z,9.457311
2022-12-08T01:45:19.414Z,9.457176
2022-12-08T01:46:19.517Z,9.457123
2022-12-08T01:47:19.388Z,9.457239
2022-12-08T01:48:19.465Z,9.457319
2022-12-08T01:49:19.416Z,9.457248
2022-12-08T01:50:19.370Z,9.457237
2022-12-08T01:51:19.352Z,9.457013
2022-12-08T01:52:19.327Z,9.457159
2022-12-08T01:53:19.332Z,9.456910
2022-12-08T01:54:19.343Z,9.457048
2022-12-08T01:55:19.320Z,9.457298
2022-12-08T01:56:19.306Z,9.457117
2022-12-08T01:57:19.305Z,9.457181
2022-12-08T01:58:19.297Z,9.457161
2022-12-08T01:59:19.305Z,9.457216
2022-12-08T02:00:19.272Z,9.457352
2022-12-08T02:01:19.342Z,9.457390
2022-12-08T02:02:19.454Z,9.457161
2022-12-08T02:03:19.250Z,9.456851
2022-12-08T02:04:19.280Z,9.456892
2022-12-08T02:05:19.243Z,9.456969
2022-12-08T02:06:19.226Z,9.456919
2022-12-08T02:07:19.223Z,9.457127
2022-12-08T02:08:19.290Z,9.457376
2022-12-08T02:09:19.226Z,9.457577
2022-12-08T02:10:19.201Z,9.458074
2022-12-08T02:11:19.188Z,9.458008
2022-12-08T02:12:19.182Z,9.457586
2022-12-08T02:13:19.179Z,9.457073
2022-12-08T02:14:19.188Z,9.457060
2022-12-08T02:15:19.160Z,9.457121
2022-12-08T02:16:19.186Z,9.457140
2022-12-08T02:17:19.150Z,9.457195
2022-12-08T02:18:19.144Z,9.457265
2022-12-08T02:19:34.534Z,9.457097
2022-12-08T02:20:21.127Z,9.457121
2022-12-08T02:21:19.115Z,9.457205
2022-12-08T02:22:19.111Z,9.457207
2022-12-08T02:23:19.090Z,9.457262
2022-12-08T02:24:19.101Z,9.457017
2022-12-08T02:25:19.080Z,9.457079
2022-12-08T02:26:19.078Z,9.457142
2022-12-08T02:27:19.078Z,9.457003
2022-12-08T02:28:19.062Z,9.457021
2022-12-08T02:29:19.076Z,9.457068
2022-12-08T02:30:19.049Z,9.457035
2022-12-08T02:31:19.112Z,9.457111
2022-12-08T02:32:19.019Z,9.457067
2022-12-08T02:33:19.025Z,9.457151
2022-12-08T02:34:19.028Z,9.457327
2022-12-08T02:35:19.001Z,9.457350
2022-12-08T02:36:18.989Z,9.457279
2022-12-08T02:37:18.986Z,9.457125
2022-12-08T02:38:18.976Z,9.457106
2022-12-08T02:39:18.985Z,9.456966
2022-12-08T02:40:18.949Z,9.457058
2022-12-08T02:41:18.947Z,9.457032
2022-12-08T02:42:18.943Z,9.456995
2022-12-08T02:43:18.936Z,9.456990
2022-12-08T02:44:18.947Z,9.457097
2022-12-08T02:45:18.922Z,9.457041
2022-12-08T02:46:18.981Z,9.457269
2022-12-08T02:47:18.913Z,9.457361
2022-12-08T02:48:18.885Z,9.457335
2022-12-08T02:49:18.906Z,9.457502
2022-12-08T02:50:18.879Z,9.457223
2022-12-08T02:51:18.884Z,9.456988
2022-12-08T02:52:18.852Z,9.457108
2022-12-08T02:53:19.857Z,9.457253
2022-12-08T02:54:18.867Z,9.457123
2022-12-08T02:55:18.837Z,9.456969
2022-12-08T02:56:18.824Z,9.457037
2022-12-08T02:57:18.817Z,9.457061
2022-12-08T02:58:18.811Z,9.457341
2022-12-08T02:59:18.832Z,9.457255
2022-12-08T03:00:18.794Z,9.457259
2022-12-08T03:01:18.852Z,9.457108
2022-12-08T03:02:18.826Z,9.457101
2022-12-08T03:03:18.778Z,9.457141
2022-12-08T03:04:18.782Z,9.457148
2022-12-08T03:05:18.756Z,9.457111
2022-12-08T03:06:18.748Z,9.457312
2022-12-08T03:07:18.762Z,9.457591
2022-12-08T03:08:18.785Z,9.457341
2022-12-08T03:09:18.751Z,9.457093
2022-12-08T03:10:18.727Z,9.457404
2022-12-08T03:11:18.796Z,9.457745
2022-12-08T03:12:18.696Z,9.457694
2022-12-08T03:13:18.693Z,9.457193
2022-12-08T03:14:19.705Z,9.457166
2022-12-08T03:15:18.673Z,9.457151
2022-12-08T03:16:18.794Z,9.457161
2022-12-08T03:17:18.655Z,9.457074
2022-12-08T03:18:18.658Z,9.457150
2022-12-08T03:19:18.648Z,9.457187
2022-12-08T03:20:18.655Z,9.457193
2022-12-08T03:21:18.631Z,9.457182
2022-12-08T03:22:18.620Z,9.457055
2022-12-08T03:23:18.623Z,9.456841
2022-12-08T03:24:18.603Z,9.457080
2022-12-08T03:25:18.605Z,9.457118
2022-12-08T03:26:18.592Z,9.457229
2022-12-08T03:27:18.574Z,9.457260
2022-12-08T03:28:18.572Z,9.457161
2022-12-08T03:29:18.579Z,9.457184
2022-12-08T03:30:18.572Z,9.457232
2022-12-08T03:31:18.606Z,9.457059
2022-12-08T03:32:18.536Z,9.457123
2022-12-08T03:33:18.535Z,9.457179
2022-12-08T03:34:18.531Z,9.457117
2022-12-08T03:35:18.529Z,9.457199
2022-12-08T03:36:18.506Z,9.457148
2022-12-08T03:37:18.493Z,9.457105
2022-12-08T03:38:18.499Z,9.457149
2022-12-08T03:39:18.477Z,9.456887
2022-12-08T03:40:18.502Z,9.457297
2022-12-08T03:41:18.479Z,9.457274
2022-12-08T03:42:18.459Z,9.457288
2022-12-08T03:43:18.453Z,9.457199
2022-12-08T03:44:18.446Z,9.457179
2022-12-08T03:45:18.464Z,9.457170
2022-12-08T03:46:18.485Z,9.457230
2022-12-08T03:47:18.411Z,9.457115
2022-12-08T03:48:18.412Z,9.457099
2022-12-08T03:49:18.402Z,9.457200
2022-12-08T03:50:18.414Z,9.457192
2022-12-08T03:51:18.392Z,9.457018
2022-12-08T03:52:18.382Z,9.457026
2022-12-08T03:53:18.372Z,9.457156
2022-12-08T03:54:18.362Z,9.457055
2022-12-08T03:55:18.358Z,9.457092
2022-12-08T03:56:18.346Z,9.457040
2022-12-08T03:57:18.344Z,9.457012
2022-12-08T03:58:18.359Z,9.456895
2022-12-08T03:59:18.323Z,9.456795
2022-12-08T04:00:18.364Z,9.456941
2022-12-08T04:01:18.385Z,9.457164
2022-12-08T04:02:18.397Z,9.457109
2022-12-08T04:03:18.327Z,9.457179
2022-12-08T04:04:18.277Z,9.457214
2022-12-08T04:05:18.293Z,9.457016
2022-12-08T04:06:18.269Z,9.456687
2022-12-08T04:07:18.247Z,9.457037
2022-12-08T04:08:18.324Z,9.457121
2022-12-08T04:09:18.262Z,9.457067
2022-12-08T04:10:18.249Z,9.457203
2022-12-08T04:11:18.220Z,9.457155
2022-12-08T04:12:18.208Z,9.457129
2022-12-08T04:13:18.204Z,9.457144
2022-12-08T04:14:18.190Z,9.457251
2022-12-08T04:15:18.208Z,9.457254
2022-12-08T04:16:18.252Z,9.457259
2022-12-08T04:17:18.178Z,9.457210
2022-12-08T04:18:18.165Z,9.457202
2022-12-08T04:19:18.167Z,9.457177
2022-12-08T04:20:18.166Z,9.457355
2022-12-08T04:21:18.139Z,9.457227
2022-12-08T04:22:18.132Z,9.457182
2022-12-08T04:23:18.120Z,9.457171
2022-12-08T04:24:18.115Z,9.457504
2022-12-08T04:25:18.225Z,9.457211
2022-12-08T04:26:18.091Z,9.457129
2022-12-08T04:27:18.087Z,9.457122
2022-12-08T04:28:18.068Z,9.457161
2022-12-08T04:29:18.084Z,9.457146
2022-12-08T04:30:18.095Z,9.457210
2022-12-08T04:31:18.075Z,9.457175
2022-12-08T04:32:18.044Z,9.457205
2022-12-08T04:33:18.041Z,9.457315
2022-12-08T04:34:18.032Z,9.457213
2022-12-08T04:35:18.041Z,9.457060
2022-12-08T04:36:18.013Z,9.457173
2022-12-08T04:37:18.004Z,9.457237
2022-12-08T04:38:17.996Z,9.457257
2022-12-08T04:39:17.985Z,9.457265
2022-12-08T04:40:17.990Z,9.456936
2022-12-08T04:41:17.966Z,9.457018
2022-12-08T04:42:17.968Z,9.457184
2022-12-08T04:43:17.961Z,9.457463
2022-12-08T04:44:17.945Z,9.457488
2022-12-08T04:45:17.955Z,9.457138
2022-12-08T04:46:17.957Z,9.457371
2022-12-08T04:47:17.990Z,9.456889
2022-12-08T04:48:17.908Z,9.456835
2022-12-08T04:49:17.895Z,9.456922
2022-12-08T04:50:17.921Z,9.457211
2022-12-08T04:51:17.888Z,9.457272
2022-12-08T04:52:17.868Z,9.457250
2022-12-08T04:53:17.868Z,9.457156
2022-12-08T04:54:17.855Z,9.457094
2022-12-08T04:55:17.866Z,9.457036
2022-12-08T04:56:17.841Z,9.456930
2022-12-08T04:57:17.829Z,9.457306
2022-12-08T04:58:17.821Z,9.456861
2022-12-08T04:59:17.813Z,9.457253
2022-12-08T05:00:17.817Z,9.456503
2022-12-08T05:01:17.853Z,9.456750
2022-12-08T05:02:17.884Z,9.457038
2022-12-08T05:03:17.776Z,9.457156
2022-12-08T05:04:17.755Z,9.457236
2022-12-08T05:05:17.803Z,9.457170
2022-12-08T05:06:17.759Z,9.457222
2022-12-08T05:07:17.741Z,9.457391
2022-12-08T05:08:17.756Z,9.457241
2022-12-08T05:09:17.730Z,9.457192
2022-12-08T05:10:17.738Z,9.457230
2022-12-08T05:11:17.716Z,9.457249
2022-12-08T05:12:17.702Z,9.457164
2022-12-08T05:13:17.705Z,9.456985
2022-12-08T05:14:17.696Z,9.457053
2022-12-08T05:15:17.710Z,9.457144
2022-12-08T05:16:17.783Z,9.457102
2022-12-08T05:17:17.669Z,9.457075
2022-12-08T05:18:17.656Z,9.457043
2022-12-08T05:19:17.668Z,9.456955
2022-12-08T05:20:17.655Z,9.457087
2022-12-08T05:21:17.630Z,9.457191
2022-12-08T05:22:17.623Z,9.457097
2022-12-08T05:23:17.613Z,9.457065
2022-12-08T05:24:17.610Z,9.457134
2022-12-08T05:25:17.618Z,9.457056
2022-12-08T05:26:17.583Z,9.456741
2022-12-08T05:27:17.579Z,9.456866
2022-12-08T05:28:40.751Z,9.457062
2022-12-08T05:29:19.582Z,9.457136
2022-12-08T05:30:17.577Z,9.457013
2022-12-08T05:31:17.581Z,9.457170
2022-12-08T05:32:17.532Z,9.457068
2022-12-08T05:33:17.533Z,9.457019
2022-12-08T05:34:17.527Z,9.456994
2022-12-08T05:35:17.536Z,9.456896
2022-12-08T05:36:17.516Z,9.456969
2022-12-08T05:37:17.527Z,9.456952
2022-12-08T05:38:17.501Z,9.457068
2022-12-08T05:39:17.478Z,9.457170
2022-12-08T05:40:17.498Z,9.457114
2022-12-08T05:41:17.471Z,9.457162
2022-12-08T05:42:23.163Z,9.457266
2022-12-08T05:43:19.453Z,9.457133
2022-12-08T05:44:17.447Z,9.457005
2022-12-08T05:45:17.461Z,9.457019
2022-12-08T05:46:17.518Z,9.457037
2022-12-08T05:47:17.425Z,9.457049
2022-12-08T05:48:17.402Z,9.457073
2022-12-08T05:49:17.410Z,9.456930
2022-12-08T05:50:17.426Z,9.456876
2022-12-08T05:51:17.394Z,9.457033
2022-12-08T05:52:17.371Z,9.457064
2022-12-08T05:53:17.383Z,9.457230
2022-12-08T05:54:17.369Z,9.457170
2022-12-08T05:55:17.383Z,9.457088
2022-12-08T05:56:17.356Z,9.457096
2022-12-08T05:57:17.343Z,9.457113
2022-12-08T05:58:17.330Z,9.457053
2022-12-08T05:59:17.329Z,9.457174
2022-12-08T06:00:17.325Z,9.457182
2022-12-08T06:01:17.313Z,9.457111
2022-12-08T06:02:17.492Z,9.457649
2022-12-08T06:03:17.371Z,9.457523
2022-12-08T06:04:17.278Z,9.457253
2022-12-08T06:05:17.297Z,9.457214
2022-12-08T06:06:17.269Z,9.457016
2022-12-08T06:07:17.263Z,9.457141
2022-12-08T06:08:17.344Z,9.457232
2022-12-08T06:09:17.253Z,9.457303
2022-12-08T06:10:17.258Z,9.457325
2022-12-08T06:11:17.234Z,9.456911
2022-12-08T06:12:17.242Z,9.456849
2022-12-08T06:13:17.218Z,9.456964
2022-12-08T06:14:17.220Z,9.457135
2022-12-08T06:15:17.213Z,9.457129
2022-12-08T06:16:17.213Z,9.457294
2022-12-08T06:17:17.172Z,9.457394
2022-12-08T06:18:17.169Z,9.457230
2022-12-08T06:19:17.163Z,9.457125
2022-12-08T06:20:17.180Z,9.457071
2022-12-08T06:21:17.146Z,9.457049
2022-12-08T06:22:17.138Z,9.457161
2022-12-08T06:23:17.129Z,9.457192
2022-12-08T06:24:17.125Z,9.457203
2022-12-08T06:25:17.127Z,9.457151
2022-12-08T06:26:17.105Z,9.457098
2022-12-08T06:27:17.097Z,9.456550
2022-12-08T06:28:17.099Z,9.456899
2022-12-08T06:29:17.078Z,9.457107
2022-12-08T06:30:17.092Z,9.457575
2022-12-08T06:31:17.228Z,9.457131
2022-12-08T06:32:17.141Z,9.457238
2022-12-08T06:33:17.054Z,9.457213
2022-12-08T06:34:17.052Z,9.457292
2022-12-08T06:35:17.045Z,9.457669
2022-12-08T06:36:17.024Z,9.457545
2022-12-08T06:37:17.025Z,9.457321
2022-12-08T06:38:17.007Z,9.457220
2022-12-08T06:39:16.986Z,9.457099
2022-12-08T06:40:17.013Z,9.457365
2022-12-08T06:41:16.981Z,9.457222
2022-12-08T06:42:16.969Z,9.457324
2022-12-08T06:43:16.963Z,9.457279
2022-12-08T06:44:16.967Z,9.457208
2022-12-08T06:45:16.963Z,9.457166
2022-12-08T06:46:17.087Z,9.457229
2022-12-08T06:47:17.839Z,9.457215
2022-12-08T07:08:59.054Z,9.457877
2022-12-08T07:09:59.061Z,9.457955
2022-12-08T07:10:59.054Z,9.457809
2022-12-08T07:11:59.036Z,9.457777
2022-12-08T07:12:59.023Z,9.457274
2022-12-08T07:13:59.009Z,9.457560
2022-12-08T07:14:59.007Z,9.457763
2022-12-08T07:15:59.008Z,9.457723
2022-12-08T07:16:59.057Z,9.457829
2022-12-08T07:18:00.212Z,9.457638
2022-12-08T07:18:58.987Z,9.457658
2022-12-08T07:19:58.977Z,9.457717
2022-12-08T07:20:58.966Z,9.457990
2022-12-08T07:21:58.954Z,9.457780
2022-12-08T07:22:58.932Z,9.457729
2022-12-08T07:23:58.913Z,9.457542
2022-12-08T07:24:58.923Z,9.457436
2022-12-08T07:25:58.920Z,9.457315
2022-12-08T07:26:58.887Z,9.457237
2022-12-08T07:27:58.907Z,9.457260
2022-12-08T07:28:58.887Z,9.457436
2022-12-08T07:29:58.856Z,9.457744
2022-12-08T07:30:58.915Z,9.457420
2022-12-08T07:31:58.844Z,9.457531
2022-12-08T07:32:59.869Z,9.457225
2022-12-08T07:33:58.824Z,9.457241
2022-12-08T07:34:58.823Z,9.457174
2022-12-08T07:35:58.828Z,9.457059
2022-12-08T07:36:58.809Z,9.457073
2022-12-08T07:37:58.798Z,9.456965
2022-12-08T07:38:58.810Z,9.456999
2022-12-08T07:39:58.786Z,9.457254
2022-12-08T07:40:58.781Z,9.457135
2022-12-08T07:41:58.781Z,9.456863
2022-12-08T07:42:58.774Z,9.457045
2022-12-08T07:43:58.758Z,9.456871
2022-12-08T07:44:58.754Z,9.456713
2022-12-08T07:45:58.792Z,9.456891
2022-12-08T07:46:58.735Z,9.456940
2022-12-08T07:47:58.724Z,9.456889
2022-12-08T07:48:58.701Z,9.457086
2022-12-08T07:49:58.692Z,9.457141
2022-12-08T07:50:58.705Z,9.457273
2022-12-08T07:51:58.685Z,9.457074
2022-12-08T07:52:58.668Z,9.457165
2022-12-08T07:53:58.646Z,9.456699
2022-12-08T07:54:58.666Z,9.456717
2022-12-08T07:55:58.648Z,9.457003
2022-12-08T07:56:58.637Z,9.457191
2022-12-08T07:57:58.619Z,9.457435
2022-12-08T07:58:58.605Z,9.457407
2022-12-08T07:59:58.608Z,9.457101
2022-12-08T08:00:58.827Z,9.457108
2022-12-08T08:02:22.399Z,9.457301
2022-12-08T08:03:00.643Z,9.457505
2022-12-08T08:03:58.580Z,9.457416
2022-12-08T08:04:58.620Z,9.457376
2022-12-08T08:05:58.559Z,9.457389
2022-12-08T08:06:58.535Z,9.457388
2022-12-08T08:07:58.649Z,9.457494
2022-12-08T08:08:58.528Z,9.457420
2022-12-08T08:09:58.496Z,9.457442
2022-12-08T08:10:58.523Z,9.457376
2022-12-08T08:12:28.991Z,9.457416
2022-12-08T08:13:00.480Z,9.457138
2022-12-08T08:13:58.500Z,9.457305
2022-12-08T08:14:58.464Z,9.457190
2022-12-08T08:15:58.571Z,9.456883
2022-12-08T08:16:58.634Z,9.456960
2022-12-08T08:17:58.440Z,9.457234
2022-12-08T08:18:58.478Z,9.457281
2022-12-08T08:19:58.443Z,9.457257
2022-12-08T08:21:06.615Z,9.457150
2022-12-08T08:21:59.411Z,9.457202
2022-12-08T08:22:58.473Z,9.457188
2022-12-08T08:23:58.407Z,9.457197
2022-12-08T08:24:58.373Z,9.457208
2022-12-08T08:25:58.379Z,9.457263
2022-12-08T08:26:58.379Z,9.457301
2022-12-08T08:27:58.345Z,9.457105
2022-12-08T08:28:58.342Z,9.457227
2022-12-08T08:29:58.332Z,9.457195
2022-12-08T08:30:58.364Z,9.457071
2022-12-08T08:31:58.339Z,9.457096
2022-12-08T08:32:58.346Z,9.457140
2022-12-08T08:33:58.289Z,9.457113
2022-12-08T08:34:58.282Z,9.457226
2022-12-08T08:35:58.288Z,9.457121
2022-12-08T08:36:58.357Z,9.457364
2022-12-08T08:37:58.283Z,9.457217
2022-12-08T08:38:58.292Z,9.457337
2022-12-08T08:39:58.234Z,9.457322
2022-12-08T08:40:58.259Z,9.457240
2022-12-08T08:41:58.210Z,9.457115
2022-12-08T08:42:58.206Z,9.457067
2022-12-08T08:43:58.243Z,9.457195
2022-12-08T08:44:58.213Z,9.457154
2022-12-08T08:45:58.236Z,9.457227
2022-12-08T08:46:58.224Z,9.457120
2022-12-08T08:47:58.157Z,9.457351
2022-12-08T08:48:58.139Z,9.457213
2022-12-08T08:49:58.142Z,9.457088
2022-12-08T08:50:58.147Z,9.457174
2022-12-08T08:51:58.116Z,9.457287
2022-12-08T08:52:58.111Z,9.457354
2022-12-08T08:53:58.127Z,9.457298
2022-12-08T08:54:58.122Z,9.457301
2022-12-08T08:55:58.096Z,9.457312
2022-12-08T08:56:58.087Z,9.457487
2022-12-08T08:57:58.082Z,9.457443
2022-12-08T08:58:58.050Z,9.457321
2022-12-08T08:59:58.037Z,9.457284
2022-12-08T09:00:58.053Z,9.457198
2022-12-08T09:01:58.084Z,9.457199
2022-12-08T09:02:58.015Z,9.457333
2022-12-08T09:03:58.233Z,9.457344
2022-12-08T09:04:58.051Z,9.457423
2022-12-08T09:05:58.096Z,9.457425
2022-12-08T09:06:57.972Z,9.457324
2022-12-08T09:07:58.016Z,9.457311
2022-12-08T09:08:57.956Z,9.457148
2022-12-08T09:10:01.590Z,9.457131
2022-12-08T09:10:57.938Z,9.457099
2022-12-08T09:11:57.937Z,9.457250
2022-12-08T09:12:57.912Z,9.457358
2022-12-08T09:13:57.945Z,9.457335
2022-12-08T09:14:57.888Z,9.457289
2022-12-08T09:15:57.950Z,9.457154
2022-12-08T09:16:57.889Z,9.457260
2022-12-08T09:17:57.866Z,9.457224
2022-12-08T09:18:57.871Z,9.457209
2022-12-08T09:19:57.840Z,9.457236
2022-12-08T09:20:57.840Z,9.457229
2022-12-08T09:21:57.836Z,9.457247
2022-12-08T09:22:57.809Z,9.457276
2022-12-08T09:23:57.803Z,9.457479
2022-12-08T09:24:57.788Z,9.457383
2022-12-08T09:25:57.780Z,9.457321
2022-12-08T09:26:57.798Z,9.457235
2022-12-08T09:27:57.767Z,9.457108
2022-12-08T09:28:57.772Z,9.457038
2022-12-08T09:29:57.738Z,9.457285
2022-12-08T09:30:57.778Z,9.457344
2022-12-08T09:31:57.851Z,9.457349
2022-12-08T09:32:57.725Z,9.457313
2022-12-08T09:33:57.695Z,9.457336
2022-12-08T09:34:57.695Z,9.457331
2022-12-08T09:35:57.680Z,9.457387
2022-12-08T09:36:57.720Z,9.457346
2022-12-08T09:37:57.664Z,9.457448
2022-12-08T09:38:57.637Z,9.457411
2022-12-08T09:39:57.637Z,9.457316
2022-12-08T09:40:57.632Z,9.457343
2022-12-08T09:41:57.650Z,9.457460
2022-12-08T09:42:57.606Z,9.457361
2022-12-08T09:43:57.596Z,9.457483
2022-12-08T09:44:57.593Z,9.457424
2022-12-08T09:45:57.588Z,9.457291
2022-12-08T09:46:57.642Z,9.457287
2022-12-08T09:47:57.561Z,9.457405
2022-12-08T09:48:57.557Z,9.457357
2022-12-08T09:49:57.545Z,9.457350
2022-12-08T09:50:57.529Z,9.457321
2022-12-08T09:51:57.539Z,9.457568
2022-12-08T09:52:57.514Z,9.457403
2022-12-08T09:53:57.495Z,9.457507
2022-12-08T09:54:57.498Z,9.457480
2022-12-08T09:55:57.512Z,9.457339
2022-12-08T09:56:57.494Z,9.457341
2022-12-08T09:57:57.462Z,9.457375
2022-12-08T09:58:57.457Z,9.457334
2022-12-08T09:59:57.459Z,9.457365
2022-12-08T10:00:57.448Z,9.457487
2022-12-08T10:01:57.535Z,9.457438
2022-12-08T10:02:57.446Z,9.457382
2022-12-08T10:03:57.413Z,9.457450
2022-12-08T10:04:57.492Z,9.457441
2022-12-08T10:05:57.389Z,9.457289
2022-12-08T10:06:57.391Z,9.457293
2022-12-08T10:07:57.410Z,9.457427
2022-12-08T10:08:57.364Z,9.457377
2022-12-08T10:09:57.344Z,9.457199
2022-12-08T10:10:57.350Z,9.457138
2022-12-08T10:11:57.356Z,9.457170
2022-12-08T10:12:57.319Z,9.457223
2022-12-08T10:13:57.306Z,9.457152
2022-12-08T10:14:57.301Z,9.457082
2022-12-08T10:15:57.490Z,9.457194
2022-12-08T10:16:57.338Z,9.457146
2022-12-08T10:17:57.254Z,9.457140
2022-12-08T10:18:57.270Z,9.457080
2022-12-08T10:19:57.262Z,9.457350
2022-12-08T10:20:57.244Z,9.457380
2022-12-08T10:21:57.285Z,9.457497
2022-12-08T10:22:57.240Z,9.457437
2022-12-08T10:23:57.232Z,9.457221
2022-12-08T10:24:57.205Z,9.456942
2022-12-08T10:25:57.180Z,9.457280
2022-12-08T10:26:57.203Z,9.457312
2022-12-08T10:27:57.169Z,9.457260
2022-12-08T10:28:57.171Z,9.457318
2022-12-08T10:29:57.149Z,9.457326
2022-12-08T10:30:57.239Z,9.457264
2022-12-08T10:31:57.185Z,9.457298
2022-12-08T10:32:57.132Z,9.457223
2022-12-08T10:33:57.118Z,9.457239
2022-12-08T10:34:57.098Z,9.457309
2022-12-08T10:35:57.105Z,9.457296
2022-12-08T10:36:57.101Z,9.457380
2022-12-08T10:37:57.065Z,9.457196
2022-12-08T10:38:57.066Z,9.457219
2022-12-08T10:39:57.050Z,9.457426
2022-12-08T10:40:57.039Z,9.457371
2022-12-08T10:41:57.066Z,9.457357
2022-12-08T10:42:57.028Z,9.457287
2022-12-08T10:43:57.024Z,9.457288
2022-12-08T10:44:57.037Z,9.457349
2022-12-08T10:45:56.984Z,9.457263
2022-12-08T10:46:57.041Z,9.457381
2022-12-08T10:47:56.960Z,9.457269
2022-12-08T10:48:56.961Z,9.457132
2022-12-08T10:49:56.938Z,9.457129
2022-12-08T10:50:56.935Z,9.457214
2022-12-08T10:51:56.943Z,9.457315
2022-12-08T10:52:56.933Z,9.457352
2022-12-08T10:53:56.904Z,9.457293
2022-12-08T10:54:56.914Z,9.457190
2022-12-08T10:55:56.899Z,9.457267
2022-12-08T10:56:56.897Z,9.457310
2022-12-08T10:57:56.867Z,9.457370
2022-12-08T10:58:56.866Z,9.457344
2022-12-08T10:59:56.847Z,9.457211
2022-12-08T11:00:56.928Z,9.457064
2022-12-08T11:01:57.014Z,9.457286
2022-12-08T11:02:56.866Z,9.457355
2022-12-08T11:03:56.811Z,9.457167
2022-12-08T11:04:56.784Z,9.457245
2022-12-08T11:05:56.778Z,9.457208
2022-12-08T11:06:56.787Z,9.457269
2022-12-08T11:07:56.782Z,9.457191
2022-12-08T11:08:56.749Z,9.457106
2022-12-08T11:09:56.752Z,9.457118
2022-12-08T11:10:56.740Z,9.457193
2022-12-08T11:11:56.742Z,9.457145
2022-12-08T11:12:56.703Z,9.457307
2022-12-08T11:13:56.681Z,9.457422
2022-12-08T11:14:56.674Z,9.457309
2022-12-08T11:15:56.690Z,9.457262
2022-12-08T11:16:56.719Z,9.457364
2022-12-08T11:17:57.789Z,9.457458
2022-12-08T11:18:57.634Z,9.456524
2022-12-08T11:19:56.624Z,9.457124
2022-12-08T11:20:56.620Z,9.457216
2022-12-08T11:21:56.611Z,9.457358
2022-12-08T11:22:56.624Z,9.457061
2022-12-08T11:23:56.580Z,9.457094
2022-12-08T11:24:56.568Z,9.457057
2022-12-08T11:25:56.570Z,9.457368
2022-12-08T11:26:56.579Z,9.457449
2022-12-08T11:27:56.547Z,9.457198
2022-12-08T11:28:56.541Z,9.457355
2022-12-08T11:29:56.538Z,9.457125
2022-12-08T11:30:56.513Z,9.456792
2022-12-08T11:31:56.550Z,9.457160
2022-12-08T11:32:56.476Z,9.456971
2022-12-08T11:33:56.470Z,9.457051
2022-12-08T11:34:56.463Z,9.457142
2022-12-08T11:35:56.457Z,9.457093
2022-12-08T11:36:56.448Z,9.457086
2022-12-08T11:38:07.835Z,9.457183
2022-12-08T11:38:57.422Z,9.457342
2022-12-08T11:39:56.404Z,9.456934
2022-12-08T11:40:56.407Z,9.456886
2022-12-08T11:41:56.412Z,9.456964
2022-12-08T11:42:56.370Z,9.457163
2022-12-08T11:43:56.362Z,9.457286
2022-12-08T11:44:57.356Z,9.457199
2022-12-08T11:45:56.369Z,9.456948
2022-12-08T11:46:56.348Z,9.457188
2022-12-08T11:47:56.334Z,9.456897
2022-12-08T11:48:58.970Z,9.457172
2022-12-08T11:49:57.284Z,9.457224
2022-12-08T11:50:56.288Z,9.456975
2022-12-08T11:51:56.296Z,9.456894
2022-12-08T11:52:56.258Z,9.457084
2022-12-08T11:53:56.244Z,9.456751
2022-12-08T11:54:56.251Z,9.456880
2022-12-08T11:55:56.227Z,9.456952
2022-12-08T11:56:56.232Z,9.457083
2022-12-08T11:57:56.314Z,9.457500
2022-12-08T11:58:56.197Z,9.457231
2022-12-08T11:59:56.174Z,9.457176
2022-12-08T12:00:56.177Z,9.457106
2022-12-08T12:01:56.284Z,9.457135
2022-12-08T12:02:56.181Z,9.457016
2022-12-08T12:03:56.176Z,9.457020
2022-12-08T12:04:56.163Z,9.456886